Time;durP1;ratioP1;P1;durP2;ratioP2;P2;SDS_P1;SDS_P2;PMS_P1;PMS_P2;Temp;Humidity;BMP_temperature;BMP_pressure;BME280_temperature;BME280_humidity;BME280_pressure;Samples;Min_cycle;Max_cycle;Signal;HPM_P1;HPM_P2
2022/11/28 00:00:05;;;;;;;1.65;1.45;;;5.00;99.90;;;;;;4389232;32;20070;-69
2022/11/28 00:02:30;;;;;;;3.35;1.05;;;5.00;99.90;;;;;;4388013;32;20062;-74
2022/11/28 00:04:56;;;;;;;0.60;0.60;;;4.90;99.90;;;;;;4369115;32;20058;-72
2022/11/28 00:07:21;;;;;;;2.08;1.52;;;4.90;99.90;;;;;;4378730;32;20082;-71
2022/11/28 00:09:47;;;;;;;0.70;0.70;;;4.90;99.90;;;;;;4387989;32;20529;-70
2022/11/28 00:12:12;;;;;;;0.80;0.80;;;4.90;99.90;;;;;;4389859;32;20126;-70
2022/11/28 00:14:38;;;;;;;5.68;2.10;;;4.90;99.90;;;;;;4389203;32;20066;-70
2022/11/28 00:17:03;;;;;;;0.80;0.80;;;4.90;99.90;;;;;;4389113;32;20078;-71
2022/11/28 00:19:29;;;;;;;0.98;0.98;;;4.90;99.90;;;;;;4391471;32;20066;-70
2022/11/28 00:21:54;;;;;;;2.87;1.42;;;5.00;99.90;;;;;;4386320;32;21202;-70
2022/11/28 00:24:20;;;;;;;0.80;0.80;;;4.90;99.90;;;;;;4388681;32;20070;-70
2022/11/28 00:26:45;;;;;;;1.05;0.75;;;4.90;99.90;;;;;;4388207;32;20082;-69
2022/11/28 00:29:11;;;;;;;0.82;0.82;;;5.00;99.90;;;;;;4389763;32;20408;-71
2022/11/28 00:31:41;;;;;;;54.25;1.42;;;5.00;99.90;;;;;;4389674;32;20153;-69
2022/11/28 00:34:08;;;;;;;1.02;0.95;;;5.00;99.90;;;;;;4376501;32;20380;-74
2022/11/28 00:36:33;;;;;;;1.55;1.33;;;5.00;99.90;;;;;;4375970;32;20559;-73
2022/11/28 00:38:59;;;;;;;3.12;1.55;;;5.00;99.90;;;;;;4386957;32;20086;-70
2022/11/28 00:41:28;;;;;;;0.50;0.50;;;5.00;99.90;;;;;;4389356;32;20549;-70
2022/11/28 00:43:54;;;;;;;1.85;1.08;;;5.00;99.90;;;;;;4389077;32;20468;-70
2022/11/28 00:46:21;;;;;;;2.78;1.55;;;5.00;99.90;;;;;;4389095;32;20074;-70
2022/11/28 00:48:47;;;;;;;1.95;1.00;;;4.90;99.90;;;;;;4390799;32;20487;-70
2022/11/28 00:51:15;;;;;;;0.98;0.98;;;5.00;99.90;;;;;;4393113;32;20070;-69
2022/11/28 00:53:42;;;;;;;2.28;1.73;;;4.90;99.90;;;;;;4388330;32;20073;-69
2022/11/28 00:56:11;;;;;;;1.67;1.42;;;4.90;99.90;;;;;;4390114;32;20095;-73
2022/11/28 00:58:37;;;;;;;2.10;1.75;;;4.90;99.90;;;;;;4386939;32;20081;-69
2022/11/28 01:01:07;;;;;;;0.52;0.52;;;4.80;99.90;;;;;;4384644;32;20842;-71
2022/11/28 01:03:33;;;;;;;1.02;0.95;;;4.90;99.90;;;;;;4378060;32;20090;-73
2022/11/28 01:05:58;;;;;;;0.60;0.60;;;4.90;99.90;;;;;;4370268;32;20618;-73
2022/11/28 01:08:24;;;;;;;2.62;1.48;;;4.90;99.90;;;;;;4381999;32;20131;-69
2022/11/28 01:10:49;;;;;;;4.15;1.00;;;4.80;99.90;;;;;;4386399;32;20081;-70
2022/11/28 01:13:15;;;;;;;1.75;0.95;;;4.70;99.90;;;;;;4387179;32;20070;-69
2022/11/28 01:15:41;;;;;;;2.28;1.27;;;4.70;99.90;;;;;;4390874;32;20086;-70
2022/11/28 01:18:07;;;;;;;4.78;1.65;;;4.60;99.90;;;;;;4384041;32;20086;-69
2022/11/28 01:20:32;;;;;;;0.65;0.65;;;4.70;99.90;;;;;;4383330;32;20074;-71
2022/11/28 01:22:58;;;;;;;1.00;1.00;;;4.70;99.90;;;;;;4387420;32;20079;-70
2022/11/28 01:25:23;;;;;;;1.52;1.33;;;4.70;99.90;;;;;;4389657;32;20554;-71
2022/11/28 01:27:49;;;;;;;0.50;0.50;;;4.70;99.90;;;;;;4388831;32;20067;-69
2022/11/28 01:30:15;;;;;;;0.98;0.98;;;4.60;99.90;;;;;;4387540;32;20090;-69
2022/11/28 01:32:41;;;;;;;3.87;1.40;;;4.70;99.90;;;;;;4385362;32;20066;-74
2022/11/28 01:35:06;;;;;;;5.97;2.60;;;4.70;99.90;;;;;;4369553;32;20094;-71
2022/11/28 01:37:32;;;;;;;0.80;0.80;;;4.70;99.90;;;;;;4375907;32;20063;-70
2022/11/28 01:39:57;;;;;;;1.05;0.93;;;4.80;99.90;;;;;;4383173;32;20547;-70
2022/11/28 01:42:23;;;;;;;2.35;1.55;;;4.70;99.90;;;;;;4389249;32;20114;-70
2022/11/28 01:44:52;;;;;;;10.32;1.85;;;4.70;99.90;;;;;;4384981;32;20066;-73
2022/11/28 01:47:22;;;;;;;1.37;1.27;;;4.70;99.90;;;;;;4386015;32;20444;-70
2022/11/28 01:49:48;;;;;;;1.30;1.15;;;4.60;99.90;;;;;;4385635;32;20085;-69
2022/11/28 01:52:18;;;;;;;0.50;0.50;;;4.60;99.90;;;;;;4384330;32;20085;-70
2022/11/28 01:54:47;;;;;;;1.15;1.12;;;4.60;99.90;;;;;;4384253;32;20125;-70
2022/11/28 01:57:18;;;;;;;1.52;0.95;;;4.50;99.90;;;;;;4387364;32;20058;-70
2022/11/28 02:00:07;;;;;;;2.83;0.85;;;4.50;99.90;;;;;;4388065;32;20521;-71
2022/11/28 02:02:45;;;;;;;2.00;1.65;;;4.50;99.90;;;;;;4376393;32;20077;-72
2022/11/28 02:05:11;;;;;;;2.47;1.15;;;4.60;99.90;;;;;;4367539;32;20066;-71
2022/11/28 02:07:37;;;;;;;13.40;1.25;;;4.50;99.90;;;;;;4378836;32;20778;-69
2022/11/28 02:10:07;;;;;;;0.80;0.80;;;4.50;99.90;;;;;;4387268;32;20106;-70
2022/11/28 02:13:00;;;;;;;0.85;0.85;;;4.50;99.90;;;;;;4388340;32;20073;-72
2022/11/28 02:15:52;;;;;;;2.75;1.02;;;4.60;99.90;;;;;;4377771;32;20110;-71
2022/11/28 02:18:46;;;;;;;0.60;0.60;;;4.60;99.90;;;;;;4374366;32;20175;-70
2022/11/28 02:21:36;;;;;;;4.35;1.17;;;4.60;99.90;;;;;;4386289;32;20563;-70
2022/11/28 02:24:22;;;;;;;0.80;0.80;;;4.60;99.90;;;;;;4378176;32;20407;-70
2022/11/28 02:27:28;;;;;;;1.15;1.15;;;4.50;99.90;;;;;;4378171;32;20082;-70
2022/11/28 02:30:21;;;;;;;0.90;0.90;;;4.50;99.90;;;;;;4374409;32;20086;-70
2022/11/28 02:32:56;;;;;;;2.42;1.33;;;4.50;99.90;;;;;;4370778;32;20094;-74
2022/11/28 02:35:42;;;;;;;0.80;0.80;;;4.40;99.90;;;;;;4369248;32;20072;-73
2022/11/28 02:38:19;;;;;;;0.70;0.70;;;4.40;99.90;;;;;;4382292;32;20456;-69
2022/11/28 02:40:51;;;;;;;0.60;0.60;;;4.40;99.90;;;;;;4386740;32;20082;-69
2022/11/28 02:43:29;;;;;;;1.17;1.12;;;4.30;99.90;;;;;;4388503;32;20534;-69
2022/11/28 02:46:16;;;;;;;1.00;1.00;;;4.30;99.90;;;;;;4387371;32;20070;-70
2022/11/28 02:48:53;;;;;;;0.57;0.57;;;4.40;99.90;;;;;;4376594;32;20778;-69
2022/11/28 02:51:27;;;;;;;0.43;0.43;;;4.40;99.90;;;;;;4389109;32;20102;-69
2022/11/28 02:53:54;;;;;;;0.75;0.75;;;4.30;99.90;;;;;;4385980;32;20122;-70
2022/11/28 02:56:22;;;;;;;1.62;1.00;;;4.40;99.90;;;;;;4388914;32;20065;-71
2022/11/28 02:58:48;;;;;;;1.75;1.02;;;4.30;99.90;;;;;;4384509;32;20167;-71
2022/11/28 03:01:19;;;;;;;0.60;0.60;;;4.30;99.90;;;;;;4386597;32;20074;-69
2022/11/28 03:03:59;;;;;;;1.40;1.23;;;4.40;99.90;;;;;;4380830;32;20578;-73
2022/11/28 03:06:36;;;;;;;0.70;0.70;;;4.50;99.90;;;;;;4369058;32;20070;-74
2022/11/28 03:09:41;;;;;;;0.70;0.70;;;4.40;99.90;;;;;;4382893;32;20102;-70
2022/11/28 03:12:30;;;;;;;1.70;1.58;;;4.40;99.90;;;;;;4378869;32;20062;-70
2022/11/28 03:15:16;;;;;;;0.77;0.77;;;4.40;99.90;;;;;;4388990;32;20596;-70
2022/11/28 03:18:08;;;;;;;1.35;1.25;;;4.40;99.90;;;;;;4384324;32;20090;-69
2022/11/28 03:20:50;;;;;;;1.40;1.30;;;4.30;99.90;;;;;;4378222;32;20082;-70
2022/11/28 03:23:25;;;;;;;0.90;0.90;;;4.40;99.90;;;;;;4372680;32;20074;-70
2022/11/28 03:25:57;;;;;;;3.62;2.05;;;4.40;99.90;;;;;;4390538;32;20090;-72
2022/11/28 03:28:30;;;;;;;0.52;0.52;;;4.40;99.90;;;;;;4393680;32;20154;-69
2022/11/28 03:31:02;;;;;;;1.73;1.10;;;4.40;99.90;;;;;;4389928;32;20077;-69
2022/11/28 03:33:40;;;;;;;1.00;0.98;;;4.50;99.90;;;;;;4380830;32;21179;-72
2022/11/28 03:36:12;;;;;;;1.00;1.00;;;4.50;99.90;;;;;;4372322;32;21220;-73
2022/11/28 03:38:43;;;;;;;2.22;1.62;;;4.40;99.90;;;;;;4388514;32;20090;-70
2022/11/28 03:41:18;;;;;;;1.60;1.42;;;4.40;99.90;;;;;;4390068;32;20078;-69
2022/11/28 03:43:51;;;;;;;0.88;0.88;;;4.30;99.90;;;;;;4390474;32;20089;-69
2022/11/28 03:46:19;;;;;;;0.88;0.88;;;4.40;99.90;;;;;;4388704;32;20062;-70
2022/11/28 03:48:49;;;;;;;0.93;0.93;;;4.40;99.90;;;;;;4387845;32;20105;-70
2022/11/28 03:51:19;;;;;;;1.65;1.45;;;4.30;99.90;;;;;;4385869;32;20079;-70
2022/11/28 03:53:52;;;;;;;1.80;1.70;;;4.30;99.90;;;;;;4387349;32;20075;-69
2022/11/28 03:56:29;;;;;;;1.08;0.98;;;4.20;99.90;;;;;;4387811;32;20143;-70
2022/11/28 03:59:00;;;;;;;0.62;0.62;;;4.20;99.90;;;;;;4389191;32;20133;-70
2022/11/28 04:01:48;;;;;;;1.10;0.95;;;4.30;99.90;;;;;;4386619;32;20186;-70
2022/11/28 04:04:27;;;;;;;0.50;0.50;;;4.20;99.90;;;;;;4363667;32;20082;-72
2022/11/28 04:06:59;;;;;;;0.82;0.75;;;4.20;99.90;;;;;;4374567;32;20501;-71
2022/11/28 04:09:37;;;;;;;0.85;0.85;;;4.30;99.90;;;;;;4391217;32;20070;-69
2022/11/28 04:12:10;;;;;;;1.15;1.08;;;4.30;99.90;;;;;;4389282;32;20542;-71
2022/11/28 04:14:45;;;;;;;2.12;1.92;;;4.20;99.90;;;;;;4389991;32;20094;-69
2022/11/28 04:17:18;;;;;;;2.17;1.48;;;4.20;99.90;;;;;;4389885;32;20124;-71
2022/11/28 04:19:52;;;;;;;0.82;0.82;;;4.20;99.90;;;;;;4386509;32;20511;-70
2022/11/28 04:22:26;;;;;;;0.88;0.88;;;4.20;99.90;;;;;;4387983;32;20140;-70
2022/11/28 04:24:56;;;;;;;1.00;0.95;;;4.20;99.90;;;;;;4386731;32;20125;-70
2022/11/28 04:27:27;;;;;;;1.02;0.70;;;4.30;99.90;;;;;;4390338;32;20086;-69
2022/11/28 04:29:57;;;;;;;0.70;0.70;;;4.40;99.90;;;;;;4388566;32;20098;-69
2022/11/28 04:32:24;;;;;;;1.65;1.45;;;4.30;99.90;;;;;;4387708;32;20063;-70
2022/11/28 04:34:57;;;;;;;1.85;1.67;;;4.30;99.90;;;;;;4370428;32;20610;-71
2022/11/28 04:37:25;;;;;;;2.50;1.55;;;4.30;99.90;;;;;;4378131;32;20066;-69
2022/11/28 04:39:52;;;;;;;0.57;0.57;;;4.20;99.90;;;;;;4388734;32;20143;-69
2022/11/28 04:42:40;;;;;;;1.05;1.05;;;4.20;99.90;;;;;;4389215;32;20612;-71
2022/11/28 04:45:12;;;;;;;0.70;0.70;;;4.20;99.90;;;;;;4372559;32;20086;-70
2022/11/28 04:47:38;;;;;;;0.82;0.82;;;4.20;99.90;;;;;;4389164;32;20087;-71
2022/11/28 04:50:04;;;;;;;0.50;0.50;;;4.20;99.90;;;;;;4388167;32;21256;-70
2022/11/28 04:52:41;;;;;;;0.85;0.85;;;4.30;99.90;;;;;;4388085;32;20166;-69
2022/11/28 04:55:29;;;;;;;0.90;0.90;;;4.30;99.90;;;;;;4385685;32;20133;-70
2022/11/28 04:58:18;;;;;;;0.62;0.62;;;4.40;99.90;;;;;;4377982;32;20540;-72
2022/11/28 05:00:46;;;;;;;1.05;0.98;;;4.40;99.90;;;;;;4388482;32;21827;-70
2022/11/28 05:03:12;;;;;;;6.22;1.25;;;4.50;99.90;;;;;;4383709;32;20089;-74
2022/11/28 05:05:47;;;;;;;0.90;0.90;;;4.40;99.90;;;;;;4370364;32;20184;-74
2022/11/28 05:08:13;;;;;;;1.65;1.55;;;4.40;99.90;;;;;;4380823;32;20095;-72
2022/11/28 05:10:39;;;;;;;0.85;0.85;;;4.40;99.90;;;;;;4385058;32;20318;-71
2022/11/28 05:13:04;;;;;;;8.25;2.47;;;4.40;99.90;;;;;;4388645;32;20156;-69
2022/11/28 05:15:30;;;;;;;1.70;1.60;;;4.40;99.90;;;;;;4388989;32;20562;-69
2022/11/28 05:17:56;;;;;;;2.05;0.98;;;4.40;99.90;;;;;;4386062;32;20315;-72
2022/11/28 05:20:21;;;;;;;0.55;0.55;;;4.40;99.90;;;;;;4386904;32;20059;-73
2022/11/28 05:22:47;;;;;;;1.15;1.00;;;4.40;99.90;;;;;;4362928;32;20062;-73
2022/11/28 05:25:12;;;;;;;2.35;1.35;;;4.40;99.90;;;;;;4356082;32;20070;-73
2022/11/28 05:27:38;;;;;;;4.78;1.77;;;4.40;99.90;;;;;;4354437;32;20217;-73
2022/11/28 05:30:05;;;;;;;1.20;1.10;;;4.40;99.90;;;;;;4352790;32;20583;-74
2022/11/28 05:32:31;;;;;;;0.70;0.70;;;4.40;99.90;;;;;;4349227;32;20572;-74
2022/11/28 05:34:57;;;;;;;0.90;0.90;;;4.50;99.90;;;;;;4332339;32;20592;-74
2022/11/28 05:37:24;;;;;;;0.80;0.80;;;4.50;99.90;;;;;;4358239;32;20131;-69
2022/11/28 05:39:50;;;;;;;2.25;1.10;;;4.60;99.90;;;;;;4385615;32;20066;-70
2022/11/28 05:42:15;;;;;;;1.20;1.12;;;4.50;99.90;;;;;;4387592;32;20090;-70
2022/11/28 05:44:41;;;;;;;0.50;0.50;;;4.40;99.90;;;;;;4388125;32;20186;-69
2022/11/28 05:47:06;;;;;;;6.50;1.23;;;4.50;99.90;;;;;;4384715;32;20569;-70
2022/11/28 05:49:31;;;;;;;0.70;0.70;;;4.40;99.90;;;;;;4386296;32;20118;-69
2022/11/28 05:51:57;;;;;;;0.75;0.75;;;4.50;99.90;;;;;;4379750;32;20086;-74
2022/11/28 05:54:23;;;;;;;0.98;0.95;;;4.50;99.90;;;;;;4350730;32;20070;-73
2022/11/28 05:56:48;;;;;;;0.80;0.80;;;4.60;99.90;;;;;;4361674;32;20840;-70
2022/11/28 05:59:13;;;;;;;0.68;0.68;;;4.60;99.90;;;;;;4387639;32;20065;-69
2022/11/28 06:01:39;;;;;;;1.98;0.88;;;4.60;99.90;;;;;;4385502;32;20081;-70
2022/11/28 06:04:04;;;;;;;0.80;0.80;;;4.50;99.90;;;;;;4353351;32;20755;-73
2022/11/28 06:06:32;;;;;;;0.60;0.60;;;4.50;99.90;;;;;;4348240;32;20367;-73
2022/11/28 06:08:58;;;;;;;0.60;0.60;;;4.50;99.90;;;;;;4342822;32;20523;-74
2022/11/28 06:11:27;;;;;;;3.05;1.75;;;4.50;99.90;;;;;;4347797;32;20376;-72
2022/11/28 06:13:53;;;;;;;3.12;0.57;;;4.50;99.90;;;;;;4334766;32;20573;-74
2022/11/28 06:16:22;;;;;;;0.80;0.80;;;4.50;99.90;;;;;;4343603;32;20548;-74
2022/11/28 06:18:53;;;;;;;1.70;1.52;;;4.50;99.90;;;;;;4310812;32;20341;-74
2022/11/28 06:21:18;;;;;;;;;;;4.50;99.90;;;;;;4310904;32;20358;-73
2022/11/28 06:23:44;;;;;;;0.95;0.95;;;4.40;99.90;;;;;;4283030;32;20155;-74
2022/11/28 06:26:12;;;;;;;1.52;1.37;;;4.40;99.90;;;;;;4291328;32;20438;-75
2022/11/28 06:28:38;;;;;;;0.98;0.98;;;4.40;99.90;;;;;;4311424;32;20122;-74
2022/11/28 06:31:08;;;;;;;1.02;0.95;;;4.40;99.90;;;;;;4277515;32;20489;-74
2022/11/28 06:33:33;;;;;;;1.90;1.62;;;4.50;99.90;;;;;;4307902;32;20401;-72
2022/11/28 06:36:00;;;;;;;0.98;0.98;;;4.50;99.90;;;;;;4309825;32;20229;-73
2022/11/28 06:38:27;;;;;;;2.15;1.75;;;4.40;99.90;;;;;;4321658;32;20748;-76
2022/11/28 06:40:56;;;;;;;0.70;0.70;;;4.40;99.90;;;;;;4314680;32;21328;-76
2022/11/28 06:43:22;;;;;;;0.65;0.65;;;4.40;99.90;;;;;;4321548;32;20367;-74
2022/11/28 06:45:47;;;;;;;0.88;0.88;;;4.40;99.90;;;;;;4343475;32;20533;-75
2022/11/28 06:48:13;;;;;;;0.70;0.70;;;4.50;99.90;;;;;;4352170;32;20122;-75
2022/11/28 06:50:38;;;;;;;1.08;0.55;;;4.50;99.90;;;;;;4347930;32;20256;-73
2022/11/28 06:53:04;;;;;;;1.23;1.12;;;4.40;99.90;;;;;;4349232;32;20299;-74
2022/11/28 06:55:29;;;;;;;1.55;1.02;;;4.40;99.90;;;;;;4363940;32;20062;-72
2022/11/28 06:57:55;;;;;;;4.12;1.37;;;4.50;99.90;;;;;;4368005;32;20722;-73
2022/11/28 07:00:20;;;;;;;1.10;1.00;;;4.50;99.90;;;;;;4350564;32;20911;-74
2022/11/28 07:02:46;;;;;;;5.47;1.62;;;4.40;99.90;;;;;;4343904;32;20070;-74
2022/11/28 07:05:11;;;;;;;1.42;1.33;;;4.40;99.90;;;;;;4341631;32;20820;-73
2022/11/28 07:07:37;;;;;;;4.85;1.58;;;4.30;99.90;;;;;;4358096;32;20375;-74
2022/11/28 07:10:02;;;;;;;1.42;1.33;;;4.30;99.90;;;;;;4361873;32;20693;-74
2022/11/28 07:12:29;;;;;;;2.10;1.58;;;4.40;99.90;;;;;;4364874;32;20137;-73
2022/11/28 07:14:54;;;;;;;1.15;1.08;;;4.40;99.90;;;;;;4361477;32;20094;-74
2022/11/28 07:17:20;;;;;;;0.90;0.90;;;4.40;99.90;;;;;;4367056;32;20156;-73
2022/11/28 07:19:45;;;;;;;1.12;1.12;;;4.30;99.90;;;;;;4347975;32;20573;-74
2022/11/28 07:22:11;;;;;;;0.85;0.85;;;4.30;99.90;;;;;;4359346;32;20245;-74
2022/11/28 07:24:36;;;;;;;1.10;1.10;;;4.30;99.90;;;;;;4364781;32;20098;-70
2022/11/28 07:27:02;;;;;;;1.73;1.62;;;4.40;99.90;;;;;;4371697;32;20256;-73
2022/11/28 07:29:34;;;;;;;1.95;1.05;;;4.30;99.90;;;;;;4361359;32;20521;-74
2022/11/28 07:32:00;;;;;;;1.25;1.15;;;4.30;99.90;;;;;;4352848;32;109576;-74
2022/11/28 07:34:26;;;;;;;0.60;0.60;;;4.40;99.90;;;;;;4345086;32;20126;-74
2022/11/28 07:36:51;;;;;;;4.70;1.20;;;4.40;99.90;;;;;;4355501;32;20656;-75
2022/11/28 07:39:17;;;;;;;0.85;0.82;;;4.40;99.90;;;;;;4368125;32;20301;-73
2022/11/28 07:41:43;;;;;;;4.40;1.37;;;4.40;99.90;;;;;;4365278;32;20379;-74
2022/11/28 07:44:10;;;;;;;1.50;1.40;;;4.40;99.90;;;;;;4365824;32;20586;-74
2022/11/28 07:46:35;;;;;;;2.50;1.73;;;4.40;99.90;;;;;;4369015;32;20111;-72
2022/11/28 07:49:01;;;;;;;1.17;0.88;;;4.40;99.90;;;;;;4363712;32;20908;-74
2022/11/28 07:51:29;;;;;;;13.40;2.25;;;4.40;99.90;;;;;;4358656;32;20066;-74
2022/11/28 07:53:55;;;;;;;0.77;0.77;;;4.40;99.90;;;;;;4363707;32;20122;-73
2022/11/28 07:56:24;;;;;;;0.93;0.93;;;4.40;99.90;;;;;;4368128;32;20228;-74
2022/11/28 07:58:50;;;;;;;1.42;0.98;;;4.50;99.90;;;;;;4362815;32;20123;-75
2022/11/28 08:01:18;;;;;;;1.90;1.10;;;4.40;99.90;;;;;;4353974;32;20117;-74
2022/11/28 08:03:45;;;;;;;1.62;1.48;;;4.30;99.90;;;;;;4342669;32;20495;-74
2022/11/28 08:06:11;;;;;;;5.82;1.60;;;4.40;99.90;;;;;;4350600;32;20294;-74
2022/11/28 08:08:36;;;;;;;0.88;0.88;;;4.50;99.90;;;;;;4363878;32;20470;-74
2022/11/28 08:11:05;;;;;;;0.68;0.68;;;4.50;99.90;;;;;;4369203;32;20552;-76
2022/11/28 08:13:31;;;;;;;8.07;3.45;;;4.60;99.90;;;;;;4370118;32;20089;-75
2022/11/28 08:15:57;;;;;;;2.22;1.48;;;4.60;99.90;;;;;;4375747;32;20578;-74
2022/11/28 08:18:23;;;;;;;1.50;1.40;;;4.50;99.90;;;;;;4371519;32;20126;-75
2022/11/28 08:20:48;;;;;;;1.52;1.15;;;4.50;99.90;;;;;;4359924;32;20058;-76
2022/11/28 08:23:15;;;;;;;0.70;0.70;;;4.70;99.90;;;;;;4366161;32;20609;-75
2022/11/28 08:25:40;;;;;;;2.53;1.40;;;4.80;99.90;;;;;;4374827;32;20415;-74
2022/11/28 08:28:05;;;;;;;2.50;1.62;;;4.90;99.90;;;;;;4374536;32;20229;-76
2022/11/28 08:30:31;;;;;;;1.15;1.08;;;4.80;99.90;;;;;;4352650;32;20553;-75
2022/11/28 08:32:56;;;;;;;1.15;1.05;;;4.80;99.90;;;;;;4358918;32;20101;-77
2022/11/28 08:35:23;;;;;;;2.22;1.45;;;4.80;99.90;;;;;;4348483;32;20106;-77
2022/11/28 08:37:48;;;;;;;0.70;0.70;;;4.90;99.90;;;;;;4362127;32;20202;-76
2022/11/28 08:40:14;;;;;;;1.40;1.08;;;4.90;99.90;;;;;;4365812;32;20961;-75
2022/11/28 08:42:40;;;;;;;2.28;1.48;;;4.90;99.90;;;;;;4366018;32;20229;-74
2022/11/28 08:45:06;;;;;;;7.95;3.50;;;4.90;99.90;;;;;;4364665;32;20641;-73
2022/11/28 08:47:32;;;;;;;1.33;1.23;;;4.80;99.90;;;;;;4371563;32;20078;-74
2022/11/28 08:49:58;;;;;;;0.70;0.70;;;5.00;99.90;;;;;;4353889;32;20368;-76
2022/11/28 08:52:24;;;;;;;1.00;1.00;;;5.00;99.90;;;;;;4362824;32;20102;-75
2022/11/28 08:54:50;;;;;;;2.12;1.15;;;5.00;99.90;;;;;;4370622;32;20549;-75
2022/11/28 08:57:15;;;;;;;0.80;0.80;;;5.10;99.90;;;;;;4376562;32;20139;-73
2022/11/28 08:59:42;;;;;;;11.05;2.03;;;5.00;99.90;;;;;;4365093;32;20366;-75
2022/11/28 09:02:11;;;;;;;1.45;1.20;;;5.20;99.90;;;;;;4362727;32;20727;-75
2022/11/28 09:04:36;;;;;;;6.62;3.12;;;5.30;99.90;;;;;;4353816;32;20648;-76
2022/11/28 09:07:03;;;;;;;13.10;3.42;;;5.20;99.90;;;;;;4360859;32;20265;-73
2022/11/28 09:09:28;;;;;;;1.15;0.95;;;5.10;99.90;;;;;;4369377;32;20089;-75
2022/11/28 09:11:54;;;;;;;2.60;2.12;;;5.00;99.90;;;;;;4373666;32;20141;-75
2022/11/28 09:14:20;;;;;;;1.02;0.98;;;5.00;99.90;;;;;;4371345;32;20173;-74
2022/11/28 09:16:45;;;;;;;10.88;2.30;;;5.00;99.90;;;;;;4376310;32;20672;-76
2022/11/28 09:19:11;;;;;;;4.80;1.50;;;5.00;99.90;;;;;;4367106;32;20213;-76
2022/11/28 09:21:36;;;;;;;5.47;1.50;;;5.00;99.90;;;;;;4354963;32;20131;-74
2022/11/28 09:24:02;;;;;;;4.68;2.72;;;5.10;99.90;;;;;;4364901;32;20074;-74
2022/11/28 09:26:28;;;;;;;0.82;0.82;;;5.20;99.90;;;;;;4370707;32;20094;-75
2022/11/28 09:28:54;;;;;;;0.90;0.90;;;5.10;99.90;;;;;;4360714;32;20392;-77
2022/11/28 09:31:20;;;;;;;5.80;1.98;;;5.20;99.90;;;;;;4354925;32;20431;-76
2022/11/28 09:33:47;;;;;;;1.67;1.40;;;5.20;99.90;;;;;;4347205;32;20112;-76
2022/11/28 09:36:16;;;;;;;1.20;1.10;;;5.30;99.90;;;;;;4349603;32;25256;-74
2022/11/28 09:38:42;;;;;;;2.50;0.75;;;5.10;99.90;;;;;;4353861;32;20074;-76
2022/11/28 09:41:42;;;;;;;1.27;1.17;;;5.10;99.90;;;;;;4360360;32;20384;-74
2022/11/28 09:44:42;;;;;;;2.20;1.25;;;5.30;99.90;;;;;;4342251;32;20297;-76
2022/11/28 09:47:16;;;;;;;0.70;0.70;;;5.20;99.90;;;;;;4342734;32;20105;-75
2022/11/28 09:49:48;;;;;;;2.58;1.73;;;5.30;99.90;;;;;;4357457;32;20288;-76
2022/11/28 09:52:23;;;;;;;1.40;1.20;;;5.40;99.90;;;;;;4350202;32;21417;-76
2022/11/28 09:54:59;;;;;;;0.88;0.88;;;5.40;99.90;;;;;;4363247;32;20248;-75
2022/11/28 09:57:33;;;;;;;3.55;1.98;;;5.40;99.90;;;;;;4357546;32;20964;-75
2022/11/28 09:59:58;;;;;;;0.75;0.75;;;5.40;99.90;;;;;;4347924;32;20164;-76
2022/11/28 10:02:41;;;;;;;1.30;1.25;;;5.50;99.90;;;;;;4348840;32;20268;-76
2022/11/28 10:05:30;;;;;;;2.45;1.55;;;5.50;99.90;;;;;;4337928;32;20833;-74
2022/11/28 10:08:17;;;;;;;0.65;0.65;;;5.50;99.90;;;;;;4357334;32;20644;-76
2022/11/28 10:11:08;;;;;;;1.25;1.15;;;5.50;99.90;;;;;;4339307;32;20079;-75
2022/11/28 10:13:56;;;;;;;1.85;1.30;;;5.50;99.90;;;;;;4363123;32;20190;-74
2022/11/28 10:16:49;;;;;;;5.35;1.75;;;5.50;99.90;;;;;;4367214;32;20585;-75
2022/11/28 10:19:21;;;;;;;18.40;3.05;;;5.50;99.90;;;;;;4346799;32;20102;-76
2022/11/28 10:21:52;;;;;;;6.03;1.42;;;5.70;99.90;;;;;;4346732;32;20596;-75
2022/11/28 10:24:24;;;;;;;5.20;1.95;;;5.60;99.90;;;;;;4348081;32;20668;-76
2022/11/28 10:26:56;;;;;;;1.85;1.12;;;5.60;99.90;;;;;;4355514;32;20189;-77
2022/11/28 10:29:28;;;;;;;0.90;0.90;;;5.60;99.90;;;;;;4351777;32;20701;-76
2022/11/28 10:31:57;;;;;;;1.30;1.23;;;5.70;99.90;;;;;;4348248;32;21457;-75
2022/11/28 10:34:29;;;;;;;1.30;1.23;;;5.70;99.90;;;;;;4343303;32;20165;-77
2022/11/28 10:37:19;;;;;;;5.95;2.80;;;5.70;99.90;;;;;;4352091;32;20687;-75
2022/11/28 10:39:45;;;;;;;2.03;1.90;;;5.70;99.90;;;;;;4353140;32;20099;-75
2022/11/28 10:42:19;;;;;;;9.70;2.87;;;5.70;99.90;;;;;;4364126;32;20087;-74
2022/11/28 10:45:12;;;;;;;1.58;1.12;;;5.70;99.90;;;;;;4359642;32;20317;-75
2022/11/28 10:47:49;;;;;;;2.47;1.80;;;5.70;99.90;;;;;;4346927;32;20160;-74
2022/11/28 10:50:29;;;;;;;3.03;1.98;;;5.70;99.90;;;;;;4349201;32;20120;-76
2022/11/28 10:53:26;;;;;;;3.22;1.48;;;5.80;99.90;;;;;;4349584;32;20534;-76
2022/11/28 10:56:04;;;;;;;3.90;1.62;;;5.90;99.90;;;;;;4358628;32;20657;-77
2022/11/28 10:58:40;;;;;;;1.00;1.00;;;5.90;99.90;;;;;;4367333;32;20226;-76
2022/11/28 11:01:06;;;;;;;2.97;2.15;;;5.90;99.90;;;;;;4366970;32;20793;-74
2022/11/28 11:03:35;;;;;;;1.92;1.60;;;5.90;99.90;;;;;;4360233;32;20090;-77
2022/11/28 11:06:01;;;;;;;1.58;1.37;;;6.00;99.90;;;;;;4352131;32;20101;-78
2022/11/28 11:08:32;;;;;;;2.33;1.25;;;6.00;99.90;;;;;;4365804;32;20557;-78
2022/11/28 11:11:00;;;;;;;;;;;6.00;99.90;;;;;;4372373;32;20164;-76
2022/11/28 11:13:28;;;;;;;2.85;1.55;;;6.10;99.90;;;;;;4364587;32;19965;-76
2022/11/28 11:16:01;;;;;;;2.10;1.48;;;6.20;99.90;;;;;;4355312;32;20509;-76
2022/11/28 11:18:29;;;;;;;3.70;2.00;;;6.30;99.90;;;;;;4348212;32;20819;-76
2022/11/28 11:21:19;;;;;;;5.53;2.12;;;6.40;99.90;;;;;;4339363;32;20121;-79
2022/11/28 11:23:47;;;;;;;28.65;3.33;;;6.30;99.90;;;;;;4338263;32;20233;-78
2022/11/28 11:26:26;;;;;;;1.00;1.00;;;6.20;99.90;;;;;;4355498;32;20256;-77
2022/11/28 11:28:52;;;;;;;4.70;2.08;;;6.30;99.90;;;;;;4359673;32;20549;-76
2022/11/28 11:31:25;;;;;;;6.18;2.35;;;6.40;99.90;;;;;;4358716;32;20075;-75
2022/11/28 11:34:01;;;;;;;0.90;0.90;;;6.40;99.90;;;;;;4349755;32;20276;-80
2022/11/28 11:36:30;;;;;;;2.03;1.08;;;6.40;99.90;;;;;;4352009;32;20293;-77
2022/11/28 11:39:13;;;;;;;3.10;1.85;;;6.40;99.90;;;;;;4365438;32;20284;-78
2022/11/28 11:41:44;;;;;;;1.15;1.12;;;6.30;99.90;;;;;;4365733;32;20090;-80
2022/11/28 11:44:19;;;;;;;1.30;1.20;;;6.30;99.90;;;;;;4364778;32;20109;-79
2022/11/28 11:47:07;;;;;;;3.03;2.25;;;6.30;99.90;;;;;;4360297;32;20591;-76
2022/11/28 11:49:35;;;;;;;1.00;1.00;;;6.30;99.90;;;;;;4347413;32;20425;-76
2022/11/28 11:52:06;;;;;;;26.55;2.35;;;6.40;99.90;;;;;;4340652;32;20204;-77
2022/11/28 11:54:32;;;;;;;5.87;1.60;;;6.40;99.90;;;;;;4338571;32;20110;-77
2022/11/28 11:56:58;;;;;;;1.02;0.77;;;6.50;99.90;;;;;;4362517;32;20566;-76
2022/11/28 11:59:28;;;;;;;1.40;1.27;;;6.50;99.90;;;;;;4350883;32;20255;-78
2022/11/28 12:02:01;;;;;;;1.23;1.15;;;6.50;99.90;;;;;;4355943;32;20601;-77
2022/11/28 12:04:32;;;;;;;1.12;1.00;;;6.50;99.90;;;;;;4344594;32;20591;-77
2022/11/28 12:07:01;;;;;;;1.17;1.08;;;6.60;99.90;;;;;;4355749;32;20222;-78
2022/11/28 12:09:34;;;;;;;1.23;1.12;;;6.60;99.90;;;;;;4355860;32;20113;-76
2022/11/28 12:12:12;;;;;;;7.70;3.03;;;6.50;99.90;;;;;;4357574;32;20578;-78
2022/11/28 12:14:39;;;;;;;2.08;1.00;;;6.50;99.90;;;;;;4354315;32;20110;-75
2022/11/28 12:17:29;;;;;;;11.48;2.22;;;6.50;99.90;;;;;;4354700;32;20126;-77
2022/11/28 12:20:14;;;;;;;2.25;1.17;;;6.50;99.90;;;;;;4335109;32;20118;-76
2022/11/28 12:22:53;;;;;;;1.12;1.12;;;6.60;99.90;;;;;;4339519;32;20221;-76
2022/11/28 12:25:45;;;;;;;1.98;1.35;;;6.60;99.90;;;;;;4360218;32;20114;-78
2022/11/28 12:28:23;;;;;;;0.55;0.55;;;6.50;99.90;;;;;;4350877;32;20830;-79
2022/11/28 12:30:55;;;;;;;1.05;0.82;;;6.50;99.90;;;;;;4347839;32;20180;-76
2022/11/28 12:33:39;;;;;;;0.50;0.50;;;6.60;99.90;;;;;;4353987;32;20303;-77
2022/11/28 12:36:20;;;;;;;3.70;1.00;;;6.60;99.90;;;;;;4349863;32;20640;-78
2022/11/28 12:38:59;;;;;;;3.78;1.25;;;6.50;99.90;;;;;;4351144;32;20140;-77
2022/11/28 12:41:54;;;;;;;6.68;1.62;;;6.60;99.90;;;;;;4348911;32;20249;-76
2022/11/28 12:44:59;;;;;;;3.33;1.35;;;6.60;99.90;;;;;;4327035;32;21731;-77
2022/11/28 12:47:39;;;;;;;2.05;1.48;;;6.60;99.90;;;;;;4328116;32;20102;-76
2022/11/28 12:50:26;;;;;;;1.42;1.23;;;6.60;99.90;;;;;;4337308;32;20189;-77
2022/11/28 12:53:02;;;;;;;4.57;1.00;;;6.60;99.90;;;;;;4332285;32;20589;-77
2022/11/28 12:55:50;;;;;;;0.98;0.85;;;6.60;99.90;;;;;;4344814;32;20122;-75
2022/11/28 12:58:37;;;;;;;3.12;0.88;;;6.50;99.90;;;;;;4347253;32;20150;-77
2022/11/28 13:01:31;;;;;;;2.15;1.08;;;6.60;99.90;;;;;;4348626;32;20233;-76
2022/11/28 13:04:15;;;;;;;9.07;1.55;;;6.60;99.90;;;;;;4336377;32;20103;-77
2022/11/28 13:06:46;;;;;;;4.30;0.70;;;6.60;99.90;;;;;;4350924;32;20102;-76
2022/11/28 13:09:36;;;;;;;1.05;0.90;;;6.60;99.90;;;;;;4357909;32;20110;-76
2022/11/28 13:12:22;;;;;;;8.85;1.35;;;6.60;99.90;;;;;;4346734;32;20105;-76
2022/11/28 13:14:53;;;;;;;0.40;0.40;;;6.70;99.90;;;;;;4355905;32;20530;-78
2022/11/28 13:17:35;;;;;;;0.93;0.90;;;6.70;99.90;;;;;;4359198;32;20482;-76
2022/11/28 13:20:14;;;;;;;1.75;1.27;;;6.70;99.90;;;;;;4344823;32;20133;-76